createdAt,value
2023-01-13T00:01:27.454Z,-1.79
2023-01-13T00:03:58.629Z,-1.80
2023-01-13T00:06:26.494Z,-1.78
2023-01-13T00:08:54.991Z,-1.82
2023-01-13T00:11:22.666Z,-1.82
2023-01-13T00:13:50.426Z,-1.78
2023-01-13T00:16:20.018Z,-1.74
2023-01-13T00:18:49.003Z,-1.68
2023-01-13T00:21:19.644Z,-1.77
2023-01-13T00:23:48.220Z,-1.77
2023-01-13T00:26:20.966Z,-1.74
2023-01-13T00:28:49.120Z,-1.80
2023-01-13T00:31:21.210Z,-1.75
2023-01-13T00:33:51.537Z,-1.78
2023-01-13T00:36:20.982Z,-1.82
2023-01-13T00:38:48.973Z,-1.82
2023-01-13T00:41:21.580Z,-1.71
2023-01-13T00:43:50.529Z,-1.66
2023-01-13T00:46:20.707Z,-1.67
2023-01-13T00:48:49.984Z,-1.62
2023-01-13T00:51:21.135Z,-1.67
2023-01-13T00:53:50.653Z,-1.68
2023-01-13T00:56:38.638Z,-1.67
2023-01-13T00:59:10.080Z,-1.58
2023-01-13T01:01:38.673Z,-1.53
2023-01-13T01:04:07.353Z,-1.70
2023-01-13T01:06:35.468Z,-1.68
2023-01-13T01:09:04.046Z,-1.66
2023-01-13T01:11:33.308Z,-1.69
2023-01-13T01:14:03.073Z,-1.62
2023-01-13T01:16:34.379Z,-1.65
2023-01-13T01:19:02.545Z,-1.61
2023-01-13T01:21:30.372Z,-1.58
2023-01-13T01:24:01.002Z,-1.56
2023-01-13T01:26:32.875Z,-1.59
2023-01-13T01:29:02.385Z,-1.60
2023-01-13T01:31:33.461Z,-1.56
2023-01-13T01:34:02.062Z,-1.61
2023-01-13T01:36:30.388Z,-1.56
2023-01-13T01:38:59.184Z,-1.64
2023-01-13T01:41:31.727Z,-1.63
2023-01-13T01:44:19.066Z,-1.56
2023-01-13T01:46:47.098Z,-1.59
2023-01-13T01:49:20.519Z,-1.60
2023-01-13T01:52:06.766Z,-1.58
2023-01-13T01:54:46.399Z,-1.52
2023-01-13T01:57:20.044Z,-1.54
2023-01-13T01:59:47.941Z,-1.54
2023-01-13T02:02:16.085Z,-1.56
2023-01-13T02:04:51.171Z,-1.52
2023-01-13T02:07:23.293Z,-1.66
2023-01-13T02:09:53.077Z,-1.70
2023-01-13T02:12:30.304Z,-1.61
2023-01-13T02:15:02.582Z,-1.52
2023-01-13T02:17:49.146Z,-1.53
2023-01-13T02:20:53.823Z,-1.63
2023-01-13T02:23:49.247Z,-1.55
2023-01-13T02:26:29.816Z,-1.54
2023-01-13T02:29:34.098Z,-1.59
2023-01-13T02:32:19.147Z,-1.61
2023-01-13T02:35:00.851Z,-1.57
2023-01-13T02:37:31.835Z,-1.56
2023-01-13T02:40:03.169Z,-1.51
2023-01-13T02:42:55.374Z,-1.46
2023-01-13T02:45:34.323Z,-1.66
2023-01-13T02:48:05.862Z,-1.58
2023-01-13T02:50:42.924Z,-1.60
2023-01-13T02:53:49.472Z,-1.57
2023-01-13T02:56:17.697Z,-1.55
2023-01-13T02:58:47.315Z,-1.59
2023-01-13T03:01:15.103Z,-1.60
2023-01-13T03:03:44.009Z,-1.54
2023-01-13T03:06:46.801Z,-1.52
2023-01-13T03:09:38.195Z,-1.52
2023-01-13T03:12:51.565Z,-1.49
2023-01-13T03:15:40.437Z,-1.52
2023-01-13T03:18:23.742Z,-1.42
2023-01-13T03:21:05.067Z,-1.38
2023-01-13T03:23:37.514Z,-1.40
2023-01-13T03:26:24.962Z,-1.41
2023-01-13T03:28:59.752Z,-1.50
2023-01-13T03:31:32.369Z,-1.52
2023-01-13T03:34:09.849Z,-1.50
2023-01-13T03:36:41.059Z,-1.57
2023-01-13T03:39:15.199Z,-1.55
2023-01-13T03:41:53.157Z,-1.52
2023-01-13T03:44:32.850Z,-1.57
2023-01-13T03:47:18.593Z,-1.54
2023-01-13T03:49:53.408Z,-1.59
2023-01-13T03:52:33.310Z,-1.63
2023-01-13T03:55:09.574Z,-1.63
2023-01-13T03:57:43.917Z,-1.65
2023-01-13T04:00:14.613Z,-1.69
2023-01-13T04:02:57.261Z,-1.70
2023-01-13T04:05:26.146Z,-1.68
2023-01-13T04:08:01.827Z,-1.72
2023-01-13T04:10:45.396Z,-1.62
2023-01-13T04:13:19.409Z,-1.55
2023-01-13T04:15:49.940Z,-1.59
2023-01-13T04:18:20.530Z,-1.62
2023-01-13T04:20:51.261Z,-1.67
2023-01-13T04:23:20.765Z,-1.70
2023-01-13T04:25:49.419Z,-1.61
2023-01-13T04:28:18.526Z,-1.61
2023-01-13T04:30:46.627Z,-1.63
2023-01-13T04:33:17.233Z,-1.62
2023-01-13T04:35:46.004Z,-1.58
2023-01-13T04:38:16.939Z,-1.62
2023-01-13T04:40:45.327Z,-1.64
2023-01-13T04:43:13.097Z,-1.70
2023-01-13T04:45:41.665Z,-1.70
2023-01-13T04:48:09.389Z,-1.67
2023-01-13T04:50:37.489Z,-1.69
2023-01-13T04:53:05.836Z,-1.58
2023-01-13T04:55:33.530Z,-1.54
2023-01-13T04:58:07.993Z,-1.56
2023-01-13T05:00:36.507Z,-1.46
2023-01-13T05:03:05.228Z,-1.45
2023-01-13T05:05:32.951Z,-1.50
2023-01-13T05:08:03.267Z,-1.50
2023-01-13T05:10:31.212Z,-1.42
2023-01-13T05:13:17.708Z,-1.42
2023-01-13T05:16:06.474Z,-1.40
2023-01-13T05:18:34.530Z,-1.23
2023-01-13T05:21:02.114Z,-1.20
2023-01-13T05:23:48.601Z,-1.31
2023-01-13T05:26:16.249Z,-1.40
2023-01-13T05:28:43.930Z,-1.50
2023-01-13T05:31:12.172Z,-1.56
2023-01-13T05:33:40.147Z,-1.57
2023-01-13T05:36:08.274Z,-1.59
2023-01-13T05:38:36.434Z,-1.59
2023-01-13T05:41:22.518Z,-1.57
2023-01-13T05:43:50.159Z,-1.46
2023-01-13T05:46:17.866Z,-1.47
2023-01-13T05:48:45.678Z,-1.48
2023-01-13T05:51:13.506Z,-1.56
2023-01-13T05:53:42.742Z,-1.60
2023-01-13T05:56:11.620Z,-1.61
2023-01-13T05:58:39.497Z,-1.65
2023-01-13T06:01:10.609Z,-1.60
2023-01-13T06:03:39.412Z,-1.49
2023-01-13T06:06:09.124Z,-1.48
2023-01-13T06:08:40.592Z,-1.48
2023-01-13T06:11:08.400Z,-1.50
2023-01-13T06:13:36.684Z,-1.45
2023-01-13T06:16:04.562Z,-1.46
2023-01-13T06:18:32.486Z,-1.48
2023-01-13T06:21:00.217Z,-1.57
2023-01-13T06:23:28.395Z,-1.58
2023-01-13T06:26:09.771Z,-1.55
2023-01-13T06:28:37.685Z,-1.51
2023-01-13T06:31:07.772Z,-1.54
2023-01-13T06:34:05.195Z,-1.49
2023-01-13T06:36:40.282Z,-1.44
2023-01-13T06:39:10.875Z,-1.46
2023-01-13T06:41:58.992Z,-1.50
2023-01-13T06:44:26.872Z,-1.40
2023-01-13T06:46:54.453Z,-1.36
2023-01-13T06:49:22.902Z,-1.34
2023-01-13T06:51:50.635Z,-1.28
2023-01-13T06:54:18.175Z,-1.21
2023-01-13T06:56:45.982Z,-1.21
2023-01-13T06:59:14.076Z,-1.09
2023-01-13T07:01:41.995Z,-1.11
2023-01-13T07:04:09.810Z,-1.20
2023-01-13T07:06:37.375Z,-1.13
2023-01-13T07:09:06.842Z,-1.09
2023-01-13T07:11:35.048Z,-1.16
2023-01-13T07:14:21.285Z,-1.15
2023-01-13T07:16:48.951Z,-1.13
2023-01-13T07:19:23.296Z,-1.13
2023-01-13T07:21:52.808Z,-1.19
2023-01-13T07:24:20.455Z,-1.16
2023-01-13T07:26:51.055Z,-1.11
2023-01-13T07:29:18.975Z,-1.18
2023-01-13T07:31:48.983Z,-1.07
2023-01-13T07:34:17.489Z,-1.02
2023-01-13T07:36:45.238Z,-0.99
2023-01-13T07:39:12.748Z,-0.92
2023-01-13T07:41:58.835Z,-0.88
2023-01-13T07:44:27.856Z,-0.87
2023-01-13T07:46:55.447Z,-0.86
2023-01-13T07:49:24.489Z,-0.72
2023-01-13T07:51:52.090Z,-0.61
2023-01-13T07:54:25.452Z,-0.51
2023-01-13T07:56:59.348Z,-0.50
2023-01-13T07:59:26.942Z,-0.58
2023-01-13T08:01:54.843Z,-0.60
2023-01-13T12:02:11.206Z,0.96
2023-01-13T12:04:51.191Z,1.05
2023-01-13T12:07:35.493Z,1.11
2023-01-13T12:10:33.761Z,1.03
2023-01-13T12:13:07.375Z,1.01
2023-01-13T12:15:54.584Z,0.98
2023-01-13T12:18:24.850Z,1.07
2023-01-13T12:21:24.367Z,1.09
2023-01-13T12:24:10.927Z,1.17
2023-01-13T12:26:49.429Z,1.19
2023-01-13T12:29:19.641Z,1.16
2023-01-13T12:31:49.393Z,1.02
2023-01-13T12:34:29.014Z,1.08
2023-01-13T12:37:36.483Z,1.03
2023-01-13T12:41:02.758Z,1.07
2023-01-13T12:43:51.105Z,1.05
2023-01-13T12:46:18.647Z,1.13
2023-01-13T12:48:59.261Z,1.17
2023-01-13T12:51:33.242Z,1.20
2023-01-13T12:54:02.423Z,1.16
2023-01-13T12:56:37.047Z,1.17
2023-01-13T12:59:19.978Z,1.21
2023-01-13T13:02:08.616Z,1.10
2023-01-13T13:04:52.064Z,1.06
2023-01-13T13:07:41.500Z,1.04
2023-01-13T13:10:36.773Z,1.06
2023-01-13T13:13:20.863Z,1.07
2023-01-13T13:15:50.868Z,1.02
2023-01-13T13:18:18.956Z,0.98
2023-01-13T13:20:56.201Z,0.96
2023-01-13T13:23:26.439Z,0.98
2023-01-13T13:26:14.812Z,1.02
2023-01-13T13:29:13.488Z,0.99
2023-01-13T13:31:59.202Z,1.00
2023-01-13T13:34:52.923Z,1.04
2023-01-13T13:37:55.737Z,0.94
2023-01-13T13:40:43.787Z,0.97
2023-01-13T13:43:32.424Z,1.08
2023-01-13T13:46:18.805Z,0.95
2023-01-13T13:48:54.606Z,0.97
2023-01-13T13:51:41.494Z,0.86
2023-01-13T13:54:15.396Z,0.78
2023-01-13T13:56:45.355Z,0.70
2023-01-13T13:59:14.421Z,0.69
2023-01-13T14:01:45.314Z,0.77
2023-01-13T14:04:21.063Z,0.85
2023-01-13T14:07:06.248Z,0.73
2023-01-13T14:09:44.622Z,0.71
2023-01-13T14:12:27.149Z,0.71
2023-01-13T14:14:57.555Z,0.69
2023-01-13T14:17:30.104Z,0.73
2023-01-13T14:20:07.956Z,0.80
2023-01-13T14:22:35.858Z,0.74
2023-01-13T14:25:30.348Z,0.66
2023-01-13T14:28:03.854Z,0.69
2023-01-13T14:30:33.115Z,0.70
2023-01-13T14:33:01.301Z,0.69
2023-01-13T14:35:30.073Z,0.75
2023-01-13T14:38:04.894Z,0.72
2023-01-13T14:40:33.264Z,0.74
2023-01-13T14:43:02.435Z,0.70
2023-01-13T14:45:33.215Z,0.70
2023-01-13T14:48:02.703Z,0.66
2023-01-13T14:50:33.950Z,0.61
2023-01-13T14:53:02.007Z,0.57
2023-01-13T14:55:40.866Z,0.56
2023-01-13T14:58:28.646Z,0.50
2023-01-13T15:01:30.416Z,0.51
2023-01-13T15:04:26.077Z,0.54
2023-01-13T15:06:56.553Z,0.44
2023-01-13T15:09:40.365Z,0.45
2023-01-13T15:12:31.273Z,0.45
2023-01-13T15:14:59.326Z,0.44
2023-01-13T15:17:26.821Z,0.48
2023-01-13T15:19:54.490Z,0.47
2023-01-13T15:22:21.964Z,0.50
2023-01-13T15:24:50.308Z,0.54
2023-01-13T15:27:22.229Z,0.49
2023-01-13T15:29:49.778Z,0.39
2023-01-13T15:32:21.825Z,0.39
2023-01-13T15:34:49.418Z,0.38
2023-01-13T15:37:20.035Z,0.43
2023-01-13T15:39:47.577Z,0.38
2023-01-13T15:42:33.671Z,0.36
2023-01-13T15:45:19.998Z,0.40
2023-01-13T15:47:48.385Z,0.47
2023-01-13T15:50:18.598Z,0.46
2023-01-13T15:52:46.259Z,0.45
2023-01-13T15:55:13.939Z,0.46
2023-01-13T15:57:48.509Z,0.47
2023-01-13T16:00:21.750Z,0.51
2023-01-13T16:02:50.141Z,0.57
2023-01-13T16:05:17.942Z,0.57
2023-01-13T16:07:45.655Z,0.49
2023-01-13T16:10:20.976Z,0.47
2023-01-13T16:12:48.633Z,0.45
2023-01-13T16:15:17.479Z,0.54
2023-01-13T16:17:54.203Z,0.55
2023-01-13T16:20:22.436Z,0.46
2023-01-13T16:22:50.543Z,0.56
2023-01-13T16:25:24.399Z,0.56
2023-01-13T16:27:52.806Z,0.56
2023-01-13T16:30:24.951Z,0.60
2023-01-13T16:32:55.202Z,0.55
2023-01-13T16:35:26.299Z,0.52
2023-01-13T16:37:55.130Z,0.50
2023-01-13T16:40:33.467Z,0.44
2023-01-13T16:43:03.504Z,0.39
2023-01-13T16:45:31.833Z,0.39
2023-01-13T16:48:03.110Z,0.40
2023-01-13T16:50:42.046Z,0.40
2023-01-13T16:53:10.862Z,0.41
2023-01-13T16:55:40.056Z,0.39
2023-01-13T16:58:16.345Z,0.36
2023-01-13T20:03:46.067Z,-0.38
2023-01-13T20:06:14.318Z,-0.36
2023-01-13T20:08:46.048Z,-0.39
2023-01-13T20:11:22.858Z,-0.46
2023-01-13T20:13:52.261Z,-0.51
2023-01-13T20:16:19.777Z,-0.44
2023-01-13T20:18:51.604Z,-0.40
2023-01-13T20:21:19.478Z,-0.35
2023-01-13T20:23:53.628Z,-0.33
2023-01-13T20:26:21.776Z,-0.40
2023-01-13T20:28:49.369Z,-0.42
2023-01-13T20:31:17.286Z,-0.29
2023-01-13T20:33:49.331Z,-0.41
2023-01-13T20:40:21.547Z,-0.46
2023-01-13T20:42:49.035Z,-0.40
2023-01-13T20:45:20.413Z,-0.35
2023-01-13T20:47:48.214Z,-0.45
2023-01-13T20:50:16.751Z,-0.43
2023-01-13T20:52:46.372Z,-0.50
2023-01-13T20:55:14.727Z,-0.37
2023-01-13T20:57:42.319Z,-0.44
2023-01-13T21:00:11.474Z,-0.43
2023-01-13T21:02:40.891Z,-0.39
2023-01-13T21:05:09.712Z,-0.37
2023-01-13T21:07:37.939Z,-0.27
2023-01-13T21:10:06.009Z,-0.36
2023-01-13T21:12:52.369Z,-0.44
2023-01-13T21:15:22.247Z,-0.43
2023-01-13T21:18:09.785Z,-0.44
2023-01-13T21:20:39.180Z,-0.39
2023-01-13T21:23:07.139Z,-0.36
2023-01-13T21:25:37.246Z,-0.28
2023-01-13T21:28:10.290Z,-0.36
2023-01-13T21:30:39.250Z,-0.52
2023-01-13T21:33:06.933Z,-0.43
2023-01-13T21:35:38.403Z,-0.45
2023-01-13T21:38:06.315Z,-0.39
2023-01-13T21:40:33.896Z,-0.27
2023-01-13T21:43:19.468Z,-0.24
2023-01-13T21:46:07.067Z,-0.22
2023-01-13T21:48:34.691Z,-0.17
2023-01-13T21:51:02.368Z,-0.30
2023-01-13T21:53:29.911Z,-0.39
2023-01-13T21:55:57.716Z,-0.31
2023-01-13T21:58:25.215Z,-0.48
2023-01-13T22:00:54.156Z,-0.43
2023-01-13T22:03:21.811Z,-0.50
2023-01-13T22:05:54.945Z,-0.52
2023-01-13T22:08:22.480Z,-0.51
2023-01-13T22:11:00.175Z,-0.51
2023-01-13T22:13:48.108Z,-0.42
2023-01-13T22:16:16.130Z,-0.34
2023-01-13T22:18:43.950Z,-0.37
2023-01-13T22:21:11.900Z,-0.34
2023-01-13T22:23:39.353Z,-0.31
2023-01-13T22:26:08.667Z,-0.39
2023-01-13T22:28:45.565Z,-0.45
2023-01-13T22:31:19.247Z,-0.59
2023-01-13T22:33:48.120Z,-0.51
2023-01-13T22:36:16.240Z,-0.57
2023-01-13T22:38:44.488Z,-0.51
2023-01-13T22:41:12.566Z,-0.50
2023-01-13T22:43:40.156Z,-0.49
2023-01-13T22:46:12.475Z,-0.51
2023-01-13T22:48:41.617Z,-0.55
2023-01-13T22:51:14.713Z,-0.52
2023-01-13T22:53:42.792Z,-0.60
2023-01-13T22:56:16.422Z,-0.67
2023-01-13T22:58:44.832Z,-0.56
2023-01-13T23:01:17.311Z,-0.53
2023-01-13T23:03:47.709Z,-0.53
2023-01-13T23:06:17.169Z,-0.58
2023-01-13T23:08:46.582Z,-0.64
2023-01-13T23:11:16.867Z,-0.74
2023-01-13T23:13:45.674Z,-0.69
2023-01-13T23:16:19.690Z,-0.60
2023-01-13T23:19:12.897Z,-0.56
2023-01-13T23:21:40.709Z,-0.58
2023-01-13T23:24:09.580Z,-0.54
2023-01-13T23:26:37.827Z,-0.61
2023-01-13T23:29:08.216Z,-0.62
2023-01-13T23:31:37.970Z,-0.67
2023-01-13T23:34:05.591Z,-0.57
2023-01-13T23:36:33.438Z,-0.48
2023-01-13T23:39:00.986Z,-0.58
2023-01-13T23:41:28.942Z,-0.57
2023-01-13T23:43:59.576Z,-0.55
2023-01-13T23:46:32.744Z,-0.54
2023-01-13T23:49:02.627Z,-0.52
2023-01-13T23:51:30.469Z,-0.56
2023-01-13T23:54:02.606Z,-0.52
2023-01-13T23:56:31.523Z,-0.57
2023-01-13T23:58:59.158Z,-0.61
